createdAt,value
2016-05-21T00:00:40.576Z,0
2016-05-21T00:01:37.547Z,0
2016-05-21T00:02:40.925Z,0
2016-05-21T00:03:40.850Z,0
2016-05-21T00:04:40.539Z,0
2016-05-21T00:05:41.105Z,0
2016-05-21T00:06:40.654Z,0
2016-05-21T00:07:40.392Z,0
2016-05-21T00:08:37.894Z,0
2016-05-21T00:09:37.381Z,0
2016-05-21T00:10:37.133Z,0
2016-05-21T00:11:40.508Z,0
2016-05-21T00:12:37.339Z,0
2016-05-21T00:13:40.139Z,0
2016-05-21T00:14:37.032Z,0
2016-05-21T00:15:36.879Z,0
2016-05-21T00:16:37.077Z,0
2016-05-21T00:17:36.851Z,0
2016-05-21T00:18:36.813Z,0
2016-05-21T00:19:39.915Z,0
2016-05-21T00:20:36.766Z,0
2016-05-21T00:21:36.632Z,0
2016-05-21T00:22:36.591Z,0
2016-05-21T00:23:39.407Z,0
2016-05-21T00:24:36.617Z,0
2016-05-21T00:25:36.183Z,0
2016-05-21T00:26:36.250Z,0
2016-05-21T00:27:39.550Z,0
2016-05-21T00:28:36.303Z,0
2016-05-21T00:29:36.103Z,0
2016-05-21T00:30:38.903Z,0
2016-05-21T00:31:36.204Z,0
2016-05-21T00:32:38.973Z,0
2016-05-21T00:33:36.053Z,0
2016-05-21T00:34:39.025Z,0
2016-05-21T00:35:38.996Z,0
2016-05-21T00:36:41.967Z,0
2016-05-21T00:37:38.908Z,0
2016-05-21T00:38:42.239Z,0
2016-05-21T00:39:36.022Z,0
2016-05-21T00:40:41.744Z,0
2016-05-21T00:41:36.278Z,0
2016-05-21T00:42:47.655Z,0
2016-05-21T00:43:44.627Z,0
2016-05-21T00:44:41.738Z,0
2016-05-21T00:45:41.508Z,0
2016-05-21T00:46:38.495Z,0
2016-05-21T00:47:41.700Z,0
2016-05-21T00:48:38.500Z,0
2016-05-21T00:49:38.861Z,0
2016-05-21T00:50:38.286Z,0
2016-05-21T00:51:38.039Z,0
2016-05-21T00:52:38.416Z,0
2016-05-21T00:53:44.122Z,0
2016-05-21T00:54:38.124Z,0
2016-05-21T00:55:35.393Z,0
2016-05-21T00:56:35.224Z,0
2016-05-21T00:57:37.898Z,0
2016-05-21T00:58:37.854Z,0
2016-05-21T00:59:34.795Z,0
2016-05-21T01:00:35.188Z,0
2016-05-21T01:01:37.941Z,0
2016-05-21T01:02:34.662Z,0
2016-05-21T01:03:34.837Z,0
2016-05-21T01:04:34.402Z,0
2016-05-21T01:05:34.514Z,0
2016-05-21T01:06:34.657Z,0
2016-05-21T01:07:34.551Z,0
2016-05-21T01:08:34.412Z,0
2016-05-21T01:09:34.369Z,0
2016-05-21T01:10:34.121Z,0
2016-05-21T01:11:40.577Z,0
2016-05-21T01:12:34.392Z,0
2016-05-21T01:13:40.222Z,0
2016-05-21T01:14:40.289Z,0
2016-05-21T01:15:34.056Z,0
2016-05-21T01:16:40.013Z,0
2016-05-21T01:17:33.937Z,0
2016-05-21T01:18:33.908Z,0
2016-05-21T01:19:34.146Z,0
2016-05-21T01:20:34.180Z,0
2016-05-21T01:21:43.182Z,0
2016-05-21T01:22:36.575Z,0
2016-05-21T01:24:36.752Z,0
2016-05-21T01:25:45.583Z,0
2016-05-21T01:26:34.023Z,0
2016-05-21T01:27:36.323Z,0
2016-05-21T01:28:36.279Z,0
2016-05-21T01:29:36.579Z,0
2016-05-21T01:30:36.535Z,0
2016-05-21T01:31:36.349Z,0
2016-05-21T01:32:39.759Z,0
2016-05-21T01:33:39.246Z,0
2016-05-21T01:34:39.139Z,0
2016-05-21T01:35:38.954Z,0
2016-05-21T01:36:36.035Z,0
2016-05-21T01:37:35.990Z,0
2016-05-21T01:38:33.103Z,0
2016-05-21T01:39:35.887Z,0
2016-05-21T01:40:35.842Z,0
2016-05-21T01:41:32.548Z,0
2016-05-21T01:42:38.723Z,0
2016-05-21T01:43:32.711Z,0
2016-05-21T01:44:35.854Z,0
2016-05-21T01:45:32.653Z,0
2016-05-21T01:46:35.562Z,0
2016-05-21T01:47:35.596Z,0
2016-05-21T01:48:32.442Z,0
2016-05-21T01:49:32.805Z,0
2016-05-21T01:50:32.572Z,0
2016-05-21T01:51:32.310Z,0
2016-05-21T01:52:32.109Z,0
2016-05-21T01:53:35.737Z,0
2016-05-21T01:54:32.146Z,0
2016-05-21T01:55:32.102Z,0
2016-05-21T01:56:35.371Z,0
2016-05-21T01:57:32.029Z,0
2016-05-21T01:58:31.969Z,0
2016-05-21T01:59:31.925Z,0
2016-05-21T02:00:32.271Z,0
2016-05-21T02:01:35.024Z,0
2016-05-21T02:02:40.776Z,0
2016-05-21T02:03:31.935Z,0
2016-05-21T02:04:34.735Z,0
2016-05-21T02:05:31.628Z,0
2016-05-21T02:06:31.568Z,0
2016-05-21T02:07:31.525Z,0
2016-05-21T02:08:32.027Z,0
2016-05-21T02:09:31.451Z,0
2016-05-21T02:10:34.376Z,0
2016-05-21T02:11:32.036Z,0
2016-05-21T02:12:31.132Z,0
2016-05-21T02:13:34.291Z,0
2016-05-21T02:14:31.419Z,0
2016-05-21T02:15:34.156Z,0
2016-05-21T02:16:34.111Z,0
2016-05-21T02:17:37.473Z,0
2016-05-21T02:18:30.850Z,0
2016-05-21T02:19:34.260Z,0
2016-05-21T02:20:33.903Z,0
2016-05-21T02:21:30.922Z,0
2016-05-21T02:22:33.815Z,0
2016-05-21T02:23:30.974Z,0
2016-05-21T02:24:30.539Z,0
2016-05-21T02:25:30.495Z,0
2016-05-21T02:26:30.341Z,0
2016-05-21T02:27:30.765Z,0
2016-05-21T02:28:30.394Z,0
2016-05-21T02:29:33.459Z,0
2016-05-21T02:30:30.415Z,0
2016-05-21T02:31:30.386Z,0
2016-05-21T02:32:30.310Z,0
2016-05-21T02:33:33.329Z,0
2016-05-21T02:34:30.300Z,0
2016-05-21T02:35:30.007Z,0
2016-05-21T02:36:30.258Z,0
2016-05-21T02:37:30.277Z,0
2016-05-21T02:38:30.030Z,0
2016-05-21T02:39:29.814Z,0
2016-05-21T02:40:29.910Z,0
2016-05-21T02:41:29.866Z,0
2016-05-21T02:42:29.837Z,0
2016-05-21T02:43:29.809Z,0
2016-05-21T02:44:29.592Z,0
2016-05-21T02:45:29.783Z,0
2016-05-21T02:46:29.644Z,0
2016-05-21T02:47:29.428Z,0
2016-05-21T02:48:30.041Z,0
2016-05-21T02:49:38.700Z,0
2016-05-21T02:50:32.437Z,0
2016-05-21T02:51:33.080Z,0
2016-05-21T02:52:29.458Z,0
2016-05-21T02:53:29.164Z,0
2016-05-21T02:54:29.244Z,0
2016-05-21T02:55:32.372Z,0
2016-05-21T02:56:28.860Z,0
2016-05-21T02:57:32.534Z,0
2016-05-21T02:58:31.958Z,0
2016-05-21T02:59:32.461Z,0
2016-05-21T03:00:28.808Z,0
2016-05-21T03:01:28.904Z,0
2016-05-21T03:02:28.734Z,0
2016-05-21T03:03:28.660Z,0
2016-05-21T03:04:28.771Z,0
2016-05-21T03:05:29.118Z,4
2016-05-21T03:06:31.698Z,4
2016-05-21T03:07:28.451Z,4
2016-05-21T03:08:28.579Z,0
2016-05-21T03:09:31.723Z,0
2016-05-21T03:10:28.350Z,4
2016-05-21T03:11:29.087Z,4
2016-05-21T03:12:28.340Z,4
2016-05-21T03:13:31.327Z,4
2016-05-21T03:14:28.970Z,4
2016-05-21T03:15:28.239Z,8
2016-05-21T03:16:34.241Z,8
2016-05-21T03:17:28.119Z,4
2016-05-21T03:18:28.106Z,8
2016-05-21T03:19:27.968Z,8
2016-05-21T03:20:31.003Z,12
2016-05-21T03:21:27.942Z,12
2016-05-21T03:22:27.883Z,12
2016-05-21T03:23:27.667Z,16
2016-05-21T03:24:30.778Z,20
2016-05-21T03:25:30.750Z,20
2016-05-21T03:26:27.908Z,20
2016-05-21T03:27:27.897Z,24
2016-05-21T03:28:27.586Z,24
2016-05-21T03:29:27.557Z,28
2016-05-21T03:30:27.326Z,28
2016-05-21T03:31:30.438Z,32
2016-05-21T03:32:27.409Z,32
2016-05-21T03:33:27.334Z,36
2016-05-21T03:34:27.384Z,40
2016-05-21T03:35:27.090Z,40
2016-05-21T03:36:27.217Z,44
2016-05-21T03:37:26.985Z,44
2016-05-21T03:38:30.113Z,48
2016-05-21T03:39:27.256Z,48
2016-05-21T03:40:27.071Z,52
2016-05-21T03:41:27.793Z,52
2016-05-21T03:42:27.108Z,56
2016-05-21T03:43:32.861Z,64
2016-05-21T03:44:30.723Z,68
2016-05-21T03:45:29.647Z,72
2016-05-21T03:46:32.931Z,80
2016-05-21T03:47:27.059Z,80
2016-05-21T03:48:26.625Z,88
2016-05-21T03:49:29.549Z,96
2016-05-21T03:50:26.520Z,104
2016-05-21T03:51:26.476Z,112
2016-05-21T03:52:26.260Z,112
2016-05-21T03:53:29.278Z,116
2016-05-21T03:54:32.344Z,116
2016-05-21T03:55:29.299Z,120
2016-05-21T03:56:26.239Z,124
2016-05-21T03:57:29.414Z,132
2016-05-21T03:58:26.120Z,140
2016-05-21T03:59:29.326Z,152
2016-05-21T04:00:32.250Z,156
2016-05-21T04:01:25.971Z,164
2016-05-21T04:02:25.927Z,168
2016-05-21T04:03:28.743Z,172
2016-05-21T04:04:29.230Z,172
2016-05-21T04:05:25.795Z,176
2016-05-21T04:06:28.704Z,188
2016-05-21T04:07:28.691Z,196
2016-05-21T04:08:28.740Z,208
2016-05-21T04:09:28.821Z,228
2016-05-21T04:10:25.965Z,252
2016-05-21T04:11:26.529Z,288
2016-05-21T04:12:28.454Z,320
2016-05-21T04:13:28.426Z,336
2016-05-21T04:14:25.523Z,348
2016-05-21T04:15:25.291Z,360
2016-05-21T04:16:28.497Z,384
2016-05-21T04:17:25.062Z,400
2016-05-21T04:18:25.189Z,420
2016-05-21T04:19:25.145Z,440
2016-05-21T04:20:25.070Z,456
2016-05-21T04:21:25.198Z,468
2016-05-21T04:22:24.950Z,480
2016-05-21T04:23:24.906Z,492
2016-05-21T04:24:25.064Z,496
2016-05-21T04:25:24.834Z,504
2016-05-21T04:26:34.398Z,516
2016-05-21T04:27:30.963Z,532
2016-05-21T04:28:27.888Z,544
2016-05-21T04:29:24.703Z,556
2016-05-21T04:30:27.972Z,588
2016-05-21T04:31:27.365Z,632
2016-05-21T04:32:24.461Z,672
2016-05-21T04:33:27.307Z,684
2016-05-21T04:34:27.373Z,700
2016-05-21T04:35:27.329Z,712
2016-05-21T04:36:24.112Z,724
2016-05-21T04:37:36.460Z,704
2016-05-21T04:38:24.165Z,696
2016-05-21T04:39:24.418Z,680
2016-05-21T04:40:24.280Z,672
2016-05-21T04:41:24.673Z,668
2016-05-21T04:42:24.176Z,664
2016-05-21T04:43:26.944Z,644
2016-05-21T04:44:27.087Z,648
2016-05-21T04:45:32.856Z,664
2016-05-21T04:46:23.921Z,668
2016-05-21T04:47:26.939Z,656
2016-05-21T04:48:23.895Z,660
2016-05-21T04:49:23.476Z,672
2016-05-21T04:50:23.854Z,680
2016-05-21T04:51:26.372Z,692
2016-05-21T04:52:26.547Z,716
2016-05-21T04:53:23.486Z,736
2016-05-21T04:54:29.411Z,756
2016-05-21T04:55:26.367Z,776
2016-05-21T04:56:23.730Z,796
2016-05-21T04:57:26.278Z,824
2016-05-21T04:58:26.593Z,884
2016-05-21T04:59:23.003Z,968
2016-05-21T05:00:26.115Z,1004
2016-05-21T05:01:23.055Z,1000
2016-05-21T05:02:23.260Z,980
2016-05-21T05:03:22.654Z,988
2016-05-21T05:04:22.907Z,1008
2016-05-21T05:05:22.707Z,1020
2016-05-21T05:06:23.006Z,1036
2016-05-21T05:07:22.774Z,1052
2016-05-21T05:08:22.932Z,1064
2016-05-21T05:09:22.890Z,1072
2016-05-21T05:10:22.798Z,1088
2016-05-21T05:11:22.582Z,1116
2016-05-21T05:12:22.538Z,1140
2016-05-21T05:13:22.681Z,1168
2016-05-21T05:14:22.746Z,1204
2016-05-21T05:15:22.359Z,1244
2016-05-21T05:16:25.549Z,1284
2016-05-21T05:17:37.426Z,1324
2016-05-21T05:18:25.226Z,1348
2016-05-21T05:19:22.197Z,1384
2016-05-21T05:20:22.231Z,1432
2016-05-21T05:21:21.937Z,1464
2016-05-21T05:22:22.189Z,1512
2016-05-21T05:23:25.005Z,1552
2016-05-21T05:24:25.195Z,1580
2016-05-21T05:25:24.760Z,1628
2016-05-21T05:26:25.669Z,1688
2016-05-21T05:27:21.641Z,1748
2016-05-21T05:28:24.783Z,1836
2016-05-21T05:29:24.694Z,1860
2016-05-21T05:30:30.758Z,1928
2016-05-21T05:31:24.729Z,1936
2016-05-21T05:32:21.951Z,1896
2016-05-21T05:33:21.579Z,1828
2016-05-21T05:34:24.441Z,1860
2016-05-21T05:35:21.615Z,1820
2016-05-21T05:36:30.572Z,1892
2016-05-21T05:37:24.323Z,1896
2016-05-21T05:38:30.685Z,1940
2016-05-21T05:39:21.204Z,1976
2016-05-21T05:40:21.707Z,2024
2016-05-21T05:41:21.396Z,2056
2016-05-21T05:42:27.118Z,2076
2016-05-21T05:43:23.981Z,2108
2016-05-21T05:44:27.187Z,2188
2016-05-21T05:45:20.954Z,2228
2016-05-21T05:46:20.910Z,2228
2016-05-21T05:47:20.897Z,2252
2016-05-21T05:48:26.665Z,2280
2016-05-21T05:49:21.153Z,2360
2016-05-21T05:50:23.937Z,2428
2016-05-21T05:51:23.642Z,2448
2016-05-21T05:52:23.833Z,2552
2016-05-21T05:53:20.570Z,2716
2016-05-21T05:54:20.728Z,2992
2016-05-21T05:55:20.669Z,2992
2016-05-21T05:56:20.812Z,2932
2016-05-21T05:57:20.347Z,3004
2016-05-21T05:58:20.146Z,2996
2016-05-21T05:59:20.258Z,2880
2016-05-21T06:00:26.291Z,2864
2016-05-21T06:01:29.185Z,3036
2016-05-21T06:02:23.125Z,3196
2016-05-21T06:03:20.347Z,3004
2016-05-21T06:04:22.881Z,2752
2016-05-21T06:05:33.430Z,2664
2016-05-21T06:06:26.464Z,2572
2016-05-21T06:07:31.810Z,2224
2016-05-21T06:08:28.860Z,2048
2016-05-21T06:09:23.301Z,1928
2016-05-21T06:10:22.804Z,1736
2016-05-21T06:11:20.007Z,1572
2016-05-21T06:12:19.852Z,1472
2016-05-21T06:13:20.090Z,1416
2016-05-21T06:14:19.405Z,1432
2016-05-21T06:15:23.910Z,1472
2016-05-21T06:16:28.476Z,1516
2016-05-21T06:17:19.413Z,1628
2016-05-21T06:18:19.243Z,1804
2016-05-21T06:19:25.578Z,2044
2016-05-21T06:20:19.249Z,2120
2016-05-21T06:21:22.239Z,2192
2016-05-21T06:22:25.039Z,2248
2016-05-21T06:23:22.151Z,2396
2016-05-21T06:24:22.122Z,2464
2016-05-21T06:25:19.434Z,2464
2016-05-21T06:26:25.065Z,2540
2016-05-21T06:27:18.800Z,2576
2016-05-21T06:28:18.817Z,2708
2016-05-21T06:29:25.073Z,2788
2016-05-21T06:30:19.011Z,2700
2016-05-21T06:31:21.781Z,2700
2016-05-21T06:32:27.908Z,2668
2016-05-21T06:33:21.880Z,2576
2016-05-21T06:34:25.493Z,2552
2016-05-21T06:35:21.621Z,2584
2016-05-21T06:36:18.933Z,2540
2016-05-21T06:37:18.889Z,2404
2016-05-21T06:38:18.594Z,2296
2016-05-21T06:39:18.785Z,2204
2016-05-21T06:40:18.194Z,2032
2016-05-21T06:41:18.166Z,2004
2016-05-21T06:42:21.261Z,2000
2016-05-21T06:43:18.061Z,1960
2016-05-21T06:44:17.985Z,1984
2016-05-21T06:45:18.457Z,2060
2016-05-21T06:46:18.037Z,2056
2016-05-21T06:47:21.087Z,2044
2016-05-21T06:48:17.824Z,2140
2016-05-21T06:49:21.265Z,2272
2016-05-21T06:50:21.080Z,2404
2016-05-21T06:51:29.914Z,2496
2016-05-21T06:52:20.632Z,2556
2016-05-21T06:53:21.025Z,2524
2016-05-21T06:54:23.890Z,2472
2016-05-21T06:55:32.659Z,2500
2016-05-21T06:56:20.846Z,2508
2016-05-21T06:57:20.520Z,2612
2016-05-21T06:58:20.398Z,2744
2016-05-21T06:59:17.448Z,2772
2016-05-21T07:00:23.484Z,2912
2016-05-21T07:01:41.409Z,2968
2016-05-21T07:02:20.331Z,3048
2016-05-21T07:03:23.318Z,3124
2016-05-21T07:04:20.227Z,3164
2016-05-21T07:05:17.370Z,3064
2016-05-21T07:06:20.327Z,3012
2016-05-21T07:07:20.516Z,3028
2016-05-21T07:08:17.238Z,3064
2016-05-21T07:09:17.350Z,3148
2016-05-21T07:10:23.133Z,3192
2016-05-21T07:11:20.151Z,3384
2016-05-21T07:12:20.108Z,3440
2016-05-21T07:13:29.223Z,3464
2016-05-21T07:14:19.988Z,3476
2016-05-21T07:15:17.194Z,3600
2016-05-21T07:16:22.884Z,3652
2016-05-21T07:17:19.606Z,3632
2016-05-21T07:18:25.596Z,3588
2016-05-21T07:19:16.924Z,3600
2016-05-21T07:20:22.567Z,3524
2016-05-21T07:21:22.288Z,3512
2016-05-21T07:22:22.713Z,3500
2016-05-21T07:23:19.575Z,3464
2016-05-21T07:24:16.484Z,3484
2016-05-21T07:25:22.158Z,3524
2016-05-21T07:26:16.318Z,3496
2016-05-21T07:27:16.195Z,3480
2016-05-21T07:28:16.291Z,3480
2016-05-21T07:29:18.889Z,3460
2016-05-21T07:30:19.031Z,3524
2016-05-21T07:31:19.159Z,3528
2016-05-21T07:32:18.975Z,3536
2016-05-21T07:33:15.695Z,3540
2016-05-21T07:34:18.823Z,3528
2016-05-21T07:35:16.169Z,3580
2016-05-21T07:36:15.766Z,3624
2016-05-21T07:37:15.706Z,3664
2016-05-21T07:38:16.146Z,3736
2016-05-21T07:39:18.430Z,3752
2016-05-21T07:40:19.355Z,3816
2016-05-21T07:41:21.733Z,3840
2016-05-21T07:42:15.469Z,3764
2016-05-21T07:43:24.441Z,3724
2016-05-21T07:44:22.757Z,3696
2016-05-21T07:45:15.149Z,3660
2016-05-21T07:46:21.902Z,3548
2016-05-21T07:47:18.202Z,3476
2016-05-21T07:48:21.205Z,3432
2016-05-21T07:49:15.332Z,3348
2016-05-21T07:50:18.070Z,3228
2016-05-21T07:51:24.104Z,3168
2016-05-21T07:52:18.200Z,3216
2016-05-21T07:53:27.034Z,3184
2016-05-21T07:54:20.909Z,3188
2016-05-21T07:55:18.254Z,3112
2016-05-21T07:56:20.820Z,3084
2016-05-21T07:57:14.807Z,3088
2016-05-21T07:58:23.716Z,3144
2016-05-21T07:59:23.703Z,3108
2016-05-21T08:00:17.831Z,3060
2016-05-21T08:01:14.771Z,3060
2016-05-21T08:02:20.742Z,2992
2016-05-21T08:03:14.151Z,2988
2016-05-21T08:04:20.653Z,2956
2016-05-21T08:05:20.610Z,2932
2016-05-21T08:06:14.378Z,2964
2016-05-21T08:07:17.366Z,3004
2016-05-21T08:08:23.102Z,3000
2016-05-21T08:09:13.902Z,3076
2016-05-21T08:10:14.170Z,3216
2016-05-21T08:11:14.704Z,3300
2016-05-21T08:12:16.925Z,3308
2016-05-21T08:13:14.038Z,3352
2016-05-21T08:14:14.087Z,3472
2016-05-21T08:15:16.919Z,3628
2016-05-21T08:16:13.826Z,3812
2016-05-21T08:17:13.924Z,3844
2016-05-21T08:18:13.879Z,3884
2016-05-21T08:19:16.585Z,3944
2016-05-21T08:20:13.963Z,3992
2016-05-21T08:21:16.668Z,4012
2016-05-21T08:22:13.593Z,3904
2016-05-21T08:23:13.409Z,3880
2016-05-21T08:24:13.379Z,3932
2016-05-21T08:25:13.695Z,3900
2016-05-21T08:26:13.854Z,3912
2016-05-21T08:27:13.481Z,3888
2016-05-21T08:28:16.781Z,3944
2016-05-21T08:29:16.550Z,3896
2016-05-21T08:30:16.256Z,4008
2016-05-21T08:31:16.211Z,4152
2016-05-21T08:32:13.011Z,4424
2016-05-21T08:33:16.169Z,4460
2016-05-21T08:34:13.266Z,4508
2016-05-21T08:35:16.222Z,4588
2016-05-21T08:36:15.975Z,4616
2016-05-21T08:37:16.009Z,4568
2016-05-21T08:38:12.886Z,4740
2016-05-21T08:39:15.873Z,4820
2016-05-21T08:40:13.000Z,4592
2016-05-21T08:41:12.878Z,4604
2016-05-21T08:42:15.819Z,4388
2016-05-21T08:43:15.680Z,4060
2016-05-21T08:44:15.449Z,3684
2016-05-21T08:45:15.577Z,3440
2016-05-21T08:46:12.532Z,3376
2016-05-21T08:47:12.488Z,3444
2016-05-21T08:48:12.272Z,3596
2016-05-21T08:49:15.244Z,3448
2016-05-21T08:50:21.449Z,3292
2016-05-21T08:51:18.530Z,3384
2016-05-21T08:52:12.314Z,3412
2016-05-21T08:53:12.223Z,3188
2016-05-21T08:54:12.023Z,3096
2016-05-21T08:55:12.135Z,3060
2016-05-21T08:56:12.137Z,2876
2016-05-21T08:57:12.250Z,2900
2016-05-21T08:58:11.846Z,2804
2016-05-21T08:59:12.177Z,2940
2016-05-21T09:00:11.914Z,2864
2016-05-21T09:01:14.854Z,2884
2016-05-21T09:02:11.669Z,2756
2016-05-21T09:03:11.829Z,2840
2016-05-21T09:04:11.722Z,2812
2016-05-21T09:05:21.114Z,2860
2016-05-21T09:06:11.650Z,3032
2016-05-21T09:07:14.714Z,3124
2016-05-21T09:08:14.764Z,3336
2016-05-21T09:09:11.548Z,3492
2016-05-21T09:10:11.676Z,4080
2016-05-21T09:11:15.975Z,4064
2016-05-21T09:12:15.244Z,3704
2016-05-21T09:13:14.324Z,3768
2016-05-21T09:14:17.483Z,3320
2016-05-21T09:15:11.580Z,3352
2016-05-21T09:16:11.176Z,3420
2016-05-21T09:17:17.163Z,4436
2016-05-21T09:18:14.172Z,4900
2016-05-21T09:19:14.118Z,4188
2016-05-21T09:20:10.969Z,3508
2016-05-21T09:21:17.775Z,3876
2016-05-21T09:22:11.095Z,3740
2016-05-21T09:23:21.276Z,4532
2016-05-21T09:24:14.162Z,4680
2016-05-21T09:25:20.345Z,5312
2016-05-21T09:26:19.871Z,5160
2016-05-21T09:27:11.303Z,4264
2016-05-21T09:28:19.886Z,3820
2016-05-21T09:29:13.625Z,4164
2016-05-21T09:30:16.444Z,4944
2016-05-21T09:31:10.683Z,4752
2016-05-21T09:32:13.627Z,4404
2016-05-21T09:33:13.615Z,3880
2016-05-21T09:34:10.430Z,4044
2016-05-21T09:35:13.764Z,4772
2016-05-21T09:36:13.892Z,4140
2016-05-21T09:37:10.849Z,4060
2016-05-21T09:38:13.617Z,4828
2016-05-21T09:39:10.340Z,4392
2016-05-21T09:40:13.295Z,4836
2016-05-21T09:41:10.142Z,5636
2016-05-21T09:42:13.583Z,5452
2016-05-21T09:43:10.586Z,4904
2016-05-21T09:44:10.510Z,4808
2016-05-21T09:45:13.075Z,4020
2016-05-21T09:46:10.047Z,3536
2016-05-21T09:47:12.971Z,4124
2016-05-21T09:48:10.006Z,5024
2016-05-21T09:49:09.962Z,5292
2016-05-21T09:50:09.869Z,4292
2016-05-21T09:51:09.936Z,5188
2016-05-21T09:52:12.781Z,5908
2016-05-21T09:53:09.737Z,6540
2016-05-21T09:54:12.552Z,6792
2016-05-21T09:55:09.649Z,5316
2016-05-21T09:56:09.589Z,3764
2016-05-21T09:57:13.060Z,2924
2016-05-21T09:58:09.500Z,2796
2016-05-21T09:59:15.488Z,3128
2016-05-21T10:00:18.725Z,3532
2016-05-21T10:01:09.587Z,3512
2016-05-21T10:02:12.371Z,3076
2016-05-21T10:03:15.749Z,3284
2016-05-21T10:04:12.142Z,3964
2016-05-21T10:05:09.035Z,3656
2016-05-21T10:06:09.288Z,3760
2016-05-21T10:07:09.119Z,4208
2016-05-21T10:08:09.231Z,4424
2016-05-21T10:09:12.109Z,4128
2016-05-21T10:10:09.283Z,4640
2016-05-21T10:11:09.160Z,4880
2016-05-21T10:12:13.117Z,4056
2016-05-21T10:13:08.698Z,4196
2016-05-21T10:14:08.856Z,3892
2016-05-21T10:15:08.968Z,3556
2016-05-21T10:16:11.736Z,3788
2016-05-21T10:17:08.427Z,4372
2016-05-21T10:18:11.648Z,5764
2016-05-21T10:19:08.588Z,6044
2016-05-21T10:20:14.403Z,5212
2016-05-21T10:21:11.517Z,4012
2016-05-21T10:22:08.722Z,3536
2016-05-21T10:23:08.475Z,3076
2016-05-21T10:24:08.384Z,3036
2016-05-21T10:25:08.245Z,3728
2016-05-21T10:26:08.747Z,4128
2016-05-21T10:27:08.469Z,4980
2016-05-21T10:28:11.410Z,4876
2016-05-21T10:29:08.163Z,5340
2016-05-21T10:30:08.118Z,5316
2016-05-21T10:31:11.277Z,4860
2016-05-21T10:32:08.014Z,4808
2016-05-21T10:33:10.783Z,5080
2016-05-21T10:34:07.941Z,4676
2016-05-21T10:35:07.897Z,4332
2016-05-21T10:36:10.838Z,4112
2016-05-21T10:37:11.028Z,4336
2016-05-21T10:38:10.765Z,4608
2016-05-21T10:39:07.580Z,5232
2016-05-21T10:40:07.708Z,4924
2016-05-21T10:41:07.648Z,4840
2016-05-21T10:42:10.618Z,4792
2016-05-21T10:43:13.543Z,4544
2016-05-21T10:44:08.124Z,4188
2016-05-21T10:45:07.299Z,3984
2016-05-21T10:46:07.692Z,4184
2016-05-21T10:47:10.789Z,4992
2016-05-21T10:48:10.745Z,5044
2016-05-21T10:49:10.138Z,4892
2016-05-21T10:50:07.094Z,4836
2016-05-21T10:51:13.237Z,4376
2016-05-21T10:52:10.131Z,4228
2016-05-21T10:53:10.181Z,4412
2016-05-21T10:54:07.089Z,4384
2016-05-21T10:55:07.076Z,4532
2016-05-21T10:56:07.017Z,4820
2016-05-21T10:57:07.270Z,4960
2016-05-21T10:58:09.927Z,4924
2016-05-21T10:59:06.869Z,4552
2016-05-21T11:00:09.839Z,4376
2016-05-21T11:01:06.983Z,4432
2016-05-21T11:02:06.735Z,4628
2016-05-21T11:03:12.708Z,5152
2016-05-21T11:04:15.522Z,5652
2016-05-21T11:05:06.649Z,5776
2016-05-21T11:06:09.558Z,5800
2016-05-21T11:07:06.358Z,5736
2016-05-21T11:08:09.330Z,5788
2016-05-21T11:09:09.410Z,6216
2016-05-21T11:10:06.585Z,6620
2016-05-21T11:11:09.354Z,6772
2016-05-21T11:12:13.091Z,6624
2016-05-21T11:13:06.140Z,6696
2016-05-21T11:14:06.221Z,7032
2016-05-21T11:15:06.552Z,6968
2016-05-21T11:16:06.132Z,6600
2016-05-21T11:17:06.292Z,6884
2016-05-21T11:18:06.123Z,6440
2016-05-21T11:19:06.203Z,6228
2016-05-21T11:20:09.925Z,6360
2016-05-21T11:21:06.131Z,6636
2016-05-21T11:22:08.883Z,6252
2016-05-21T11:23:05.683Z,6644
2016-05-21T11:24:05.795Z,6484
2016-05-21T11:25:05.609Z,6516
2016-05-21T11:26:05.909Z,6760
2016-05-21T11:27:05.943Z,6300
2016-05-21T11:28:08.837Z,5984
2016-05-21T11:29:05.777Z,6172
2016-05-21T11:30:05.577Z,6352
2016-05-21T11:31:06.079Z,6236
2016-05-21T11:32:05.457Z,6172
2016-05-21T11:33:11.413Z,5952
2016-05-21T11:34:05.369Z,5860
2016-05-21T11:35:05.293Z,5892
2016-05-21T11:36:08.155Z,5836
2016-05-21T11:37:05.252Z,5648
2016-05-21T11:38:17.208Z,5788
2016-05-21T11:39:11.351Z,5728
2016-05-21T11:40:08.510Z,5964
2016-05-21T11:41:05.059Z,5972
2016-05-21T11:42:08.062Z,5664
2016-05-21T11:43:08.001Z,5556
2016-05-21T11:44:08.161Z,5360
2016-05-21T11:45:05.101Z,5240
2016-05-21T11:46:05.041Z,5156
2016-05-21T11:47:04.748Z,4860
2016-05-21T11:48:04.766Z,4624
2016-05-21T11:49:08.034Z,4792
2016-05-21T11:50:04.709Z,5308
2016-05-21T11:51:04.695Z,5996
2016-05-21T11:52:07.604Z,5856
2016-05-21T11:53:04.592Z,5772
2016-05-21T11:54:07.531Z,6072
2016-05-21T11:55:07.550Z,6172
2016-05-21T11:56:07.272Z,7000
2016-05-21T11:57:04.493Z,7052
2016-05-21T11:58:04.339Z,6676
2016-05-21T11:59:04.155Z,7024
2016-05-21T12:00:04.657Z,7584
2016-05-21T12:01:04.066Z,7240
2016-05-21T12:02:04.146Z,6972
2016-05-21T12:03:04.337Z,7468
2016-05-21T12:04:04.122Z,7748
2016-05-21T12:05:07.046Z,7504
2016-05-21T12:06:07.235Z,7352
2016-05-21T12:07:03.816Z,6908
2016-05-21T12:08:03.960Z,6100
2016-05-21T12:09:03.869Z,6044
2016-05-21T12:10:09.685Z,6908
2016-05-21T12:11:09.999Z,7412
2016-05-21T12:12:03.783Z,7312
2016-05-21T12:13:04.379Z,7540
2016-05-21T12:14:06.882Z,7584
2016-05-21T12:15:06.635Z,7608
2016-05-21T12:16:03.810Z,7316
2016-05-21T12:17:06.593Z,7504
2016-05-21T12:18:06.362Z,7576
2016-05-21T12:19:06.709Z,7108
2016-05-21T12:20:03.648Z,6560
2016-05-21T12:21:06.385Z,6796
2016-05-21T12:22:03.295Z,7388
2016-05-21T12:23:09.312Z,8196
2016-05-21T12:24:06.253Z,8800
2016-05-21T12:25:09.256Z,8536
2016-05-21T12:26:12.086Z,7604
2016-05-21T12:27:03.042Z,6928
2016-05-21T12:28:06.076Z,6856
2016-05-21T12:29:06.031Z,7084
2016-05-21T12:30:02.831Z,6960
2016-05-21T12:31:02.850Z,6624
2016-05-21T12:32:02.915Z,6356
2016-05-21T12:33:06.106Z,6124
2016-05-21T12:34:08.842Z,5764
2016-05-21T12:35:09.064Z,6292
2016-05-21T12:36:08.972Z,6692
2016-05-21T12:37:08.725Z,6652
2016-05-21T12:38:02.680Z,6280
2016-05-21T12:39:05.825Z,5760
2016-05-21T12:40:02.577Z,5084
2016-05-21T12:41:02.563Z,5952
2016-05-21T12:42:03.317Z,6508
2016-05-21T12:43:02.288Z,6088
2016-05-21T12:44:05.416Z,5512
2016-05-21T12:45:11.669Z,5180
2016-05-21T12:46:02.312Z,4724
2016-05-21T12:47:02.565Z,5068
2016-05-21T12:48:05.239Z,4956
2016-05-21T12:49:02.210Z,4680
2016-05-21T12:50:08.151Z,4500
2016-05-21T12:51:01.966Z,4520
2016-05-21T12:52:08.079Z,4428
2016-05-21T12:53:14.268Z,4348
2016-05-21T12:54:09.271Z,4420
2016-05-21T12:55:08.195Z,4476
2016-05-21T12:56:16.948Z,4252
2016-05-21T12:57:04.717Z,4332
2016-05-21T12:58:04.813Z,4400
2016-05-21T12:59:07.784Z,4548
2016-05-21T13:00:07.990Z,4704
2016-05-21T13:01:04.681Z,4728
2016-05-21T13:02:07.714Z,4608
2016-05-21T13:03:07.483Z,4632
2016-05-21T13:04:01.611Z,4556
2016-05-21T13:05:01.550Z,4548
2016-05-21T13:06:07.569Z,4564
2016-05-21T13:07:01.430Z,4544
2016-05-21T13:08:07.449Z,4500
2016-05-21T13:09:07.593Z,4564
2016-05-21T13:10:16.471Z,4612
2016-05-21T13:11:10.349Z,4688
2016-05-21T13:12:04.319Z,4880
2016-05-21T13:13:13.229Z,4348
2016-05-21T13:14:01.637Z,4732
2016-05-21T13:15:07.203Z,5920
2016-05-21T13:16:09.923Z,6368
2016-05-21T13:17:04.020Z,6304
2016-05-21T13:18:04.195Z,6996
2016-05-21T13:19:00.995Z,6608
2016-05-21T13:20:09.966Z,6116
2016-05-21T13:21:03.890Z,6292
2016-05-21T13:22:00.659Z,6716
2016-05-21T13:23:01.037Z,6840
2016-05-21T13:24:00.726Z,6028
2016-05-21T13:25:00.573Z,5404
2016-05-21T13:26:00.857Z,5176
2016-05-21T13:27:01.078Z,5244
2016-05-21T13:28:10.190Z,5092
2016-05-21T13:29:00.522Z,5012
2016-05-21T13:30:03.493Z,4988
2016-05-21T13:31:00.293Z,4284
2016-05-21T13:32:03.389Z,4440
2016-05-21T13:33:00.203Z,5828
2016-05-21T13:34:00.347Z,6448
2016-05-21T13:35:00.288Z,6948
2016-05-21T13:36:03.228Z,5096
2016-05-21T13:37:00.450Z,5004
2016-05-21T13:38:00.186Z,5784
2016-05-21T13:39:03.127Z,5852
2016-05-21T13:40:02.785Z,6292
2016-05-21T13:40:59.898Z,5948
2016-05-21T13:42:02.760Z,5144
2016-05-21T13:42:59.949Z,5248